sensor_id;sensor_type;location;lat;lon;timestamp;temperature;humidity
27848;DHT22;15212;48.830;8.730;2023-08-08T00:00:48;13.40;99.90
27848;DHT22;15212;48.830;8.730;2023-08-08T00:03:16;13.30;99.90
27848;DHT22;15212;48.830;8.730;2023-08-08T00:05:44;13.30;99.90
27848;DHT22;15212;48.830;8.730;2023-08-08T00:08:13;13.40;99.90
27848;DHT22;15212;48.830;8.730;2023-08-08T00:10:41;13.30;99.90
27848;DHT22;15212;48.830;8.730;2023-08-08T00:13:09;13.40;99.90
27848;DHT22;15212;48.830;8.730;2023-08-08T00:15:38;13.30;99.90
27848;DHT22;15212;48.830;8.730;2023-08-08T00:18:06;13.30;99.90
27848;DHT22;15212;48.830;8.730;2023-08-08T00:20:35;13.30;99.90
27848;DHT22;15212;48.830;8.730;2023-08-08T00:23:03;13.30;99.90
27848;DHT22;15212;48.830;8.730;2023-08-08T00:25:31;13.30;99.90
27848;DHT22;15212;48.830;8.730;2023-08-08T00:28:00;13.20;99.90
27848;DHT22;15212;48.830;8.730;2023-08-08T00:30:28;13.20;99.90
27848;DHT22;15212;48.830;8.730;2023-08-08T00:32:57;13.30;99.90
27848;DHT22;15212;48.830;8.730;2023-08-08T00:35:25;13.20;99.90
27848;DHT22;15212;48.830;8.730;2023-08-08T00:37:53;13.20;99.90
27848;DHT22;15212;48.830;8.730;2023-08-08T00:40:22;13.30;99.90
27848;DHT22;15212;48.830;8.730;2023-08-08T00:42:50;13.30;99.90
27848;DHT22;15212;48.830;8.730;2023-08-08T00:45:19;13.30;99.90
27848;DHT22;15212;48.830;8.730;2023-08-08T00:47:47;13.30;99.90
27848;DHT22;15212;48.830;8.730;2023-08-08T00:50:16;13.30;99.90
27848;DHT22;15212;48.830;8.730;2023-08-08T00:52:44;13.30;99.90
27848;DHT22;15212;48.830;8.730;2023-08-08T00:55:13;13.30;99.90
27848;DHT22;15212;48.830;8.730;2023-08-08T00:57:42;13.30;99.90
27848;DHT22;15212;48.830;8.730;2023-08-08T01:00:10;13.30;99.90
27848;DHT22;15212;48.830;8.730;2023-08-08T01:02:39;13.30;99.90
27848;DHT22;15212;48.830;8.730;2023-08-08T01:05:08;13.40;99.90
27848;DHT22;15212;48.830;8.730;2023-08-08T01:07:43;13.30;99.90
27848;DHT22;15212;48.830;8.730;2023-08-08T01:10:12;13.30;99.90
27848;DHT22;15212;48.830;8.730;2023-08-08T01:12:53;13.40;99.90
27848;DHT22;15212;48.830;8.730;2023-08-08T01:15:19;13.40;99.90
27848;DHT22;15212;48.830;8.730;2023-08-08T01:17:48;13.40;99.90
27848;DHT22;15212;48.830;8.730;2023-08-08T01:20:18;13.40;99.90
27848;DHT22;15212;48.830;8.730;2023-08-08T01:23:12;13.30;99.90
27848;DHT22;15212;48.830;8.730;2023-08-08T01:25:47;13.40;99.90
27848;DHT22;15212;48.830;8.730;2023-08-08T01:28:20;13.30;99.90
27848;DHT22;15212;48.830;8.730;2023-08-08T01:30:49;13.30;99.90
27848;DHT22;15212;48.830;8.730;2023-08-08T01:33:18;13.30;99.90
27848;DHT22;15212;48.830;8.730;2023-08-08T01:35:50;13.30;99.90
27848;DHT22;15212;48.830;8.730;2023-08-08T01:38:34;13.20;99.90
27848;DHT22;15212;48.830;8.730;2023-08-08T01:41:06;13.20;99.90
27848;DHT22;15212;48.830;8.730;2023-08-08T01:43:37;13.10;99.90
27848;DHT22;15212;48.830;8.730;2023-08-08T01:46:07;13.10;99.90
27848;DHT22;15212;48.830;8.730;2023-08-08T01:48:35;13.10;99.90
27848;DHT22;15212;48.830;8.730;2023-08-08T01:51:04;13.10;99.90
27848;DHT22;15212;48.830;8.730;2023-08-08T01:53:32;13.00;99.90
27848;DHT22;15212;48.830;8.730;2023-08-08T01:56:01;13.00;99.90
27848;DHT22;15212;48.830;8.730;2023-08-08T01:58:29;13.00;99.90
27848;DHT22;15212;48.830;8.730;2023-08-08T02:00:58;13.00;99.90
27848;DHT22;15212;48.830;8.730;2023-08-08T02:03:26;13.00;99.90
27848;DHT22;15212;48.830;8.730;2023-08-08T02:05:54;13.00;99.90
27848;DHT22;15212;48.830;8.730;2023-08-08T02:08:23;13.00;99.90
27848;DHT22;15212;48.830;8.730;2023-08-08T02:10:51;12.90;99.90
27848;DHT22;15212;48.830;8.730;2023-08-08T02:13:20;12.90;99.90
27848;DHT22;15212;48.830;8.730;2023-08-08T02:15:48;13.00;99.90
27848;DHT22;15212;48.830;8.730;2023-08-08T02:18:16;12.90;99.90
27848;DHT22;15212;48.830;8.730;2023-08-08T02:20:45;12.90;99.90
27848;DHT22;15212;48.830;8.730;2023-08-08T02:23:13;12.90;99.90
27848;DHT22;15212;48.830;8.730;2023-08-08T02:25:41;12.90;99.90
27848;DHT22;15212;48.830;8.730;2023-08-08T02:28:10;12.90;99.90
27848;DHT22;15212;48.830;8.730;2023-08-08T02:30:38;12.90;99.90
27848;DHT22;15212;48.830;8.730;2023-08-08T02:33:07;12.90;99.90
27848;DHT22;15212;48.830;8.730;2023-08-08T02:35:36;12.90;99.90
27848;DHT22;15212;48.830;8.730;2023-08-08T02:38:05;12.80;99.90
27848;DHT22;15212;48.830;8.730;2023-08-08T02:40:33;12.80;99.90
27848;DHT22;15212;48.830;8.730;2023-08-08T02:43:02;12.80;99.90
27848;DHT22;15212;48.830;8.730;2023-08-08T02:45:30;12.80;99.90
27848;DHT22;15212;48.830;8.730;2023-08-08T02:47:59;12.80;99.90
27848;DHT22;15212;48.830;8.730;2023-08-08T02:50:27;12.80;99.90
27848;DHT22;15212;48.830;8.730;2023-08-08T02:52:55;12.80;99.90
27848;DHT22;15212;48.830;8.730;2023-08-08T02:55:24;12.80;99.90
27848;DHT22;15212;48.830;8.730;2023-08-08T02:57:52;12.80;99.90
27848;DHT22;15212;48.830;8.730;2023-08-08T03:00:21;12.80;99.90
27848;DHT22;15212;48.830;8.730;2023-08-08T03:02:49;12.90;99.90
27848;DHT22;15212;48.830;8.730;2023-08-08T03:05:18;12.90;99.90
27848;DHT22;15212;48.830;8.730;2023-08-08T03:07:46;12.90;99.90
27848;DHT22;15212;48.830;8.730;2023-08-08T03:10:15;12.90;99.90
27848;DHT22;15212;48.830;8.730;2023-08-08T03:12:43;12.90;99.90
27848;DHT22;15212;48.830;8.730;2023-08-08T03:15:11;13.00;99.90
27848;DHT22;15212;48.830;8.730;2023-08-08T03:17:41;13.00;99.90
27848;DHT22;15212;48.830;8.730;2023-08-08T03:20:10;13.00;99.90
27848;DHT22;15212;48.830;8.730;2023-08-08T03:22:39;13.10;99.90
27848;DHT22;15212;48.830;8.730;2023-08-08T03:25:07;13.10;99.90
27848;DHT22;15212;48.830;8.730;2023-08-08T03:27:36;13.00;99.90
27848;DHT22;15212;48.830;8.730;2023-08-08T03:30:05;13.10;99.90
27848;DHT22;15212;48.830;8.730;2023-08-08T03:32:34;13.10;99.90
27848;DHT22;15212;48.830;8.730;2023-08-08T03:35:03;13.10;99.90
27848;DHT22;15212;48.830;8.730;2023-08-08T03:37:31;13.10;99.90
27848;DHT22;15212;48.830;8.730;2023-08-08T03:40:00;13.10;99.90
27848;DHT22;15212;48.830;8.730;2023-08-08T03:42:28;13.10;99.90
27848;DHT22;15212;48.830;8.730;2023-08-08T03:44:57;13.10;99.90
27848;DHT22;15212;48.830;8.730;2023-08-08T03:47:25;13.10;99.90
27848;DHT22;15212;48.830;8.730;2023-08-08T03:49:55;13.10;99.90
27848;DHT22;15212;48.830;8.730;2023-08-08T03:52:24;13.10;99.90
27848;DHT22;15212;48.830;8.730;2023-08-08T03:54:53;13.10;99.90
27848;DHT22;15212;48.830;8.730;2023-08-08T03:57:21;13.00;99.90
27848;DHT22;15212;48.830;8.730;2023-08-08T03:59:49;13.00;99.90
27848;DHT22;15212;48.830;8.730;2023-08-08T04:02:18;13.00;99.90
27848;DHT22;15212;48.830;8.730;2023-08-08T04:04:46;13.00;99.90
27848;DHT22;15212;48.830;8.730;2023-08-08T04:07:14;13.00;99.90
27848;DHT22;15212;48.830;8.730;2023-08-08T04:09:43;12.90;99.90
27848;DHT22;15212;48.830;8.730;2023-08-08T04:12:11;12.90;99.90
27848;DHT22;15212;48.830;8.730;2023-08-08T04:14:40;12.90;99.90
27848;DHT22;15212;48.830;8.730;2023-08-08T04:17:08;13.00;99.90
27848;DHT22;15212;48.830;8.730;2023-08-08T04:19:37;13.00;99.90
27848;DHT22;15212;48.830;8.730;2023-08-08T04:22:05;13.00;99.90
27848;DHT22;15212;48.830;8.730;2023-08-08T04:24:34;13.10;99.90
27848;DHT22;15212;48.830;8.730;2023-08-08T04:27:02;13.20;99.90
27848;DHT22;15212;48.830;8.730;2023-08-08T04:29:31;13.20;99.90
27848;DHT22;15212;48.830;8.730;2023-08-08T04:31:59;13.20;99.90
27848;DHT22;15212;48.830;8.730;2023-08-08T04:34:27;13.20;99.90
27848;DHT22;15212;48.830;8.730;2023-08-08T04:36:56;13.20;99.90
27848;DHT22;15212;48.830;8.730;2023-08-08T04:39:24;13.20;99.90
27848;DHT22;15212;48.830;8.730;2023-08-08T04:41:52;13.20;99.90
27848;DHT22;15212;48.830;8.730;2023-08-08T04:44:21;13.20;99.90
27848;DHT22;15212;48.830;8.730;2023-08-08T04:46:49;13.20;99.90
27848;DHT22;15212;48.830;8.730;2023-08-08T04:49:18;13.20;99.90
27848;DHT22;15212;48.830;8.730;2023-08-08T04:51:46;13.20;99.90
27848;DHT22;15212;48.830;8.730;2023-08-08T04:54:14;13.30;99.90
27848;DHT22;15212;48.830;8.730;2023-08-08T04:56:43;13.30;99.90
27848;DHT22;15212;48.830;8.730;2023-08-08T04:59:12;13.30;99.90
27848;DHT22;15212;48.830;8.730;2023-08-08T05:01:40;13.30;99.90
27848;DHT22;15212;48.830;8.730;2023-08-08T05:04:09;13.30;99.90
27848;DHT22;15212;48.830;8.730;2023-08-08T05:06:37;13.30;99.90
27848;DHT22;15212;48.830;8.730;2023-08-08T05:09:06;13.30;99.90
27848;DHT22;15212;48.830;8.730;2023-08-08T05:11:36;13.30;99.90
27848;DHT22;15212;48.830;8.730;2023-08-08T05:14:04;13.30;99.90
27848;DHT22;15212;48.830;8.730;2023-08-08T05:16:33;13.30;99.90
27848;DHT22;15212;48.830;8.730;2023-08-08T05:19:02;13.30;99.90
27848;DHT22;15212;48.830;8.730;2023-08-08T05:21:30;13.40;99.90
27848;DHT22;15212;48.830;8.730;2023-08-08T05:23:59;13.50;99.90
27848;DHT22;15212;48.830;8.730;2023-08-08T05:26:27;13.60;99.90
27848;DHT22;15212;48.830;8.730;2023-08-08T05:28:56;13.60;99.90
27848;DHT22;15212;48.830;8.730;2023-08-08T05:31:24;13.60;99.90
27848;DHT22;15212;48.830;8.730;2023-08-08T05:33:52;13.70;99.90
27848;DHT22;15212;48.830;8.730;2023-08-08T05:36:21;13.70;99.90
27848;DHT22;15212;48.830;8.730;2023-08-08T05:38:50;13.80;99.90
27848;DHT22;15212;48.830;8.730;2023-08-08T05:41:18;13.80;99.90
27848;DHT22;15212;48.830;8.730;2023-08-08T05:43:47;13.90;99.90
27848;DHT22;15212;48.830;8.730;2023-08-08T05:46:15;13.90;99.90
27848;DHT22;15212;48.830;8.730;2023-08-08T05:48:43;13.90;99.90
27848;DHT22;15212;48.830;8.730;2023-08-08T05:51:13;14.00;99.90
27848;DHT22;15212;48.830;8.730;2023-08-08T05:53:41;14.00;99.90
27848;DHT22;15212;48.830;8.730;2023-08-08T05:56:09;14.10;99.90
27848;DHT22;15212;48.830;8.730;2023-08-08T05:58:39;14.20;99.90
27848;DHT22;15212;48.830;8.730;2023-08-08T06:01:08;14.40;99.90
27848;DHT22;15212;48.830;8.730;2023-08-08T06:03:38;14.50;99.90
27848;DHT22;15212;48.830;8.730;2023-08-08T06:06:06;14.60;99.90
27848;DHT22;15212;48.830;8.730;2023-08-08T06:08:35;14.70;99.90
27848;DHT22;15212;48.830;8.730;2023-08-08T06:11:03;14.80;99.90
27848;DHT22;15212;48.830;8.730;2023-08-08T06:13:32;15.00;99.90
27848;DHT22;15212;48.830;8.730;2023-08-08T06:16:00;15.10;99.90
27848;DHT22;15212;48.830;8.730;2023-08-08T06:18:30;15.30;99.90
27848;DHT22;15212;48.830;8.730;2023-08-08T06:20:59;15.60;99.90
27848;DHT22;15212;48.830;8.730;2023-08-08T06:23:27;16.00;99.90
27848;DHT22;15212;48.830;8.730;2023-08-08T06:25:55;16.50;99.90
27848;DHT22;15212;48.830;8.730;2023-08-08T06:28:24;17.10;99.90
27848;DHT22;15212;48.830;8.730;2023-08-08T06:30:53;17.90;99.90
27848;DHT22;15212;48.830;8.730;2023-08-08T06:33:21;18.40;99.90
27848;DHT22;15212;48.830;8.730;2023-08-08T06:35:50;19.10;99.90
27848;DHT22;15212;48.830;8.730;2023-08-08T06:38:19;19.80;99.90
27848;DHT22;15212;48.830;8.730;2023-08-08T06:40:47;20.80;99.90
27848;DHT22;15212;48.830;8.730;2023-08-08T06:43:16;21.90;99.90
27848;DHT22;15212;48.830;8.730;2023-08-08T06:45:44;22.50;99.90
27848;DHT22;15212;48.830;8.730;2023-08-08T06:48:13;22.40;99.90
27848;DHT22;15212;48.830;8.730;2023-08-08T06:50:41;22.40;99.90
27848;DHT22;15212;48.830;8.730;2023-08-08T06:53:09;22.50;99.90
27848;DHT22;15212;48.830;8.730;2023-08-08T06:55:38;22.10;99.90
27848;DHT22;15212;48.830;8.730;2023-08-08T06:58:06;21.90;99.90
27848;DHT22;15212;48.830;8.730;2023-08-08T07:00:35;21.50;99.90
27848;DHT22;15212;48.830;8.730;2023-08-08T07:03:03;21.50;99.90
27848;DHT22;15212;48.830;8.730;2023-08-08T07:05:31;21.60;99.90
27848;DHT22;15212;48.830;8.730;2023-08-08T07:08:00;21.80;99.90
27848;DHT22;15212;48.830;8.730;2023-08-08T07:10:28;21.90;99.90
27848;DHT22;15212;48.830;8.730;2023-08-08T07:12:57;21.70;99.90
27848;DHT22;15212;48.830;8.730;2023-08-08T07:15:25;21.60;99.90
27848;DHT22;15212;48.830;8.730;2023-08-08T07:17:54;21.10;99.90
27848;DHT22;15212;48.830;8.730;2023-08-08T07:20:22;20.90;99.90
27848;DHT22;15212;48.830;8.730;2023-08-08T07:22:51;20.60;99.90
27848;DHT22;15212;48.830;8.730;2023-08-08T07:25:20;20.10;99.90
27848;DHT22;15212;48.830;8.730;2023-08-08T07:27:48;19.90;99.90
27848;DHT22;15212;48.830;8.730;2023-08-08T07:30:16;19.60;99.90
27848;DHT22;15212;48.830;8.730;2023-08-08T07:32:45;19.30;99.90
27848;DHT22;15212;48.830;8.730;2023-08-08T07:35:13;18.90;99.90
27848;DHT22;15212;48.830;8.730;2023-08-08T07:37:42;18.60;99.90
27848;DHT22;15212;48.830;8.730;2023-08-08T07:40:15;18.40;99.90
27848;DHT22;15212;48.830;8.730;2023-08-08T07:42:48;18.40;99.90
27848;DHT22;15212;48.830;8.730;2023-08-08T07:45:17;18.50;99.90
27848;DHT22;15212;48.830;8.730;2023-08-08T07:47:45;18.50;99.90
27848;DHT22;15212;48.830;8.730;2023-08-08T07:50:14;18.30;99.90
27848;DHT22;15212;48.830;8.730;2023-08-08T07:52:42;18.10;99.90
27848;DHT22;15212;48.830;8.730;2023-08-08T07:55:11;17.90;99.90
27848;DHT22;15212;48.830;8.730;2023-08-08T07:57:39;17.70;99.90
27848;DHT22;15212;48.830;8.730;2023-08-08T08:00:08;17.50;99.90
27848;DHT22;15212;48.830;8.730;2023-08-08T08:02:39;17.40;99.90
27848;DHT22;15212;48.830;8.730;2023-08-08T08:05:12;17.50;99.90
27848;DHT22;15212;48.830;8.730;2023-08-08T08:07:40;17.50;99.90
27848;DHT22;15212;48.830;8.730;2023-08-08T08:10:10;17.60;99.90
27848;DHT22;15212;48.830;8.730;2023-08-08T08:12:41;17.50;99.90
27848;DHT22;15212;48.830;8.730;2023-08-08T08:15:10;17.60;99.90
27848;DHT22;15212;48.830;8.730;2023-08-08T08:17:38;17.70;99.90
27848;DHT22;15212;48.830;8.730;2023-08-08T08:20:08;17.70;99.90
27848;DHT22;15212;48.830;8.730;2023-08-08T08:22:38;17.80;99.90
27848;DHT22;15212;48.830;8.730;2023-08-08T08:25:07;17.80;99.90
27848;DHT22;15212;48.830;8.730;2023-08-08T08:27:39;17.90;99.90
27848;DHT22;15212;48.830;8.730;2023-08-08T08:30:08;18.00;99.90
27848;DHT22;15212;48.830;8.730;2023-08-08T08:32:38;18.00;99.90
27848;DHT22;15212;48.830;8.730;2023-08-08T08:35:08;18.10;99.90
27848;DHT22;15212;48.830;8.730;2023-08-08T08:37:39;18.10;99.90
27848;DHT22;15212;48.830;8.730;2023-08-08T08:40:08;18.30;99.90
27848;DHT22;15212;48.830;8.730;2023-08-08T08:42:38;18.30;99.90
27848;DHT22;15212;48.830;8.730;2023-08-08T08:45:09;18.30;99.90
27848;DHT22;15212;48.830;8.730;2023-08-08T08:47:38;18.30;99.90
27848;DHT22;15212;48.830;8.730;2023-08-08T08:50:09;18.30;99.90
27848;DHT22;15212;48.830;8.730;2023-08-08T08:52:37;18.40;99.90
27848;DHT22;15212;48.830;8.730;2023-08-08T08:55:06;18.30;99.90
27848;DHT22;15212;48.830;8.730;2023-08-08T08:57:36;18.40;99.90
27848;DHT22;15212;48.830;8.730;2023-08-08T09:00:05;18.40;99.90
27848;DHT22;15212;48.830;8.730;2023-08-08T09:02:34;18.30;99.90
27848;DHT22;15212;48.830;8.730;2023-08-08T09:05:04;18.40;99.90
27848;DHT22;15212;48.830;8.730;2023-08-08T09:07:33;18.40;99.90
27848;DHT22;15212;48.830;8.730;2023-08-08T09:10:02;18.40;99.90
27848;DHT22;15212;48.830;8.730;2023-08-08T09:12:31;18.30;99.90
27848;DHT22;15212;48.830;8.730;2023-08-08T09:15:03;18.00;99.90
27848;DHT22;15212;48.830;8.730;2023-08-08T09:17:33;18.00;99.90
27848;DHT22;15212;48.830;8.730;2023-08-08T09:20:01;17.90;99.90
27848;DHT22;15212;48.830;8.730;2023-08-08T09:22:32;17.90;99.90
27848;DHT22;15212;48.830;8.730;2023-08-08T09:25:02;17.90;99.90
27848;DHT22;15212;48.830;8.730;2023-08-08T09:27:31;18.00;99.90
27848;DHT22;15212;48.830;8.730;2023-08-08T09:29:59;17.90;99.90
27848;DHT22;15212;48.830;8.730;2023-08-08T09:32:32;17.80;99.90
27848;DHT22;15212;48.830;8.730;2023-08-08T09:35:00;17.80;99.90
27848;DHT22;15212;48.830;8.730;2023-08-08T09:37:29;18.00;99.90
27848;DHT22;15212;48.830;8.730;2023-08-08T09:39:59;18.20;99.90
27848;DHT22;15212;48.830;8.730;2023-08-08T09:42:29;18.20;99.90
27848;DHT22;15212;48.830;8.730;2023-08-08T09:44:58;18.20;99.90
27848;DHT22;15212;48.830;8.730;2023-08-08T09:47:27;18.30;99.90
27848;DHT22;15212;48.830;8.730;2023-08-08T09:50:01;18.40;99.90
27848;DHT22;15212;48.830;8.730;2023-08-08T09:52:33;18.40;99.90
27848;DHT22;15212;48.830;8.730;2023-08-08T09:55:02;18.40;99.90
27848;DHT22;15212;48.830;8.730;2023-08-08T09:57:32;18.30;99.90
27848;DHT22;15212;48.830;8.730;2023-08-08T10:00:02;18.40;99.90
27848;DHT22;15212;48.830;8.730;2023-08-08T10:02:32;18.60;99.90
27848;DHT22;15212;48.830;8.730;2023-08-08T10:05:04;18.60;99.90
27848;DHT22;15212;48.830;8.730;2023-08-08T10:07:33;18.70;99.90
27848;DHT22;15212;48.830;8.730;2023-08-08T10:10:01;18.80;99.90
27848;DHT22;15212;48.830;8.730;2023-08-08T10:12:31;18.90;99.90
27848;DHT22;15212;48.830;8.730;2023-08-08T10:15:00;18.90;99.90
27848;DHT22;15212;48.830;8.730;2023-08-08T10:17:34;18.90;99.90
27848;DHT22;15212;48.830;8.730;2023-08-08T10:20:08;18.90;99.90
27848;DHT22;15212;48.830;8.730;2023-08-08T10:22:43;18.80;99.90
27848;DHT22;15212;48.830;8.730;2023-08-08T10:25:24;18.80;99.90
27848;DHT22;15212;48.830;8.730;2023-08-08T10:28:04;18.80;99.90
27848;DHT22;15212;48.830;8.730;2023-08-08T10:30:47;18.90;99.90
27848;DHT22;15212;48.830;8.730;2023-08-08T10:33:25;19.00;99.90
27848;DHT22;15212;48.830;8.730;2023-08-08T10:36:02;19.10;99.90
27848;DHT22;15212;48.830;8.730;2023-08-08T10:38:44;19.30;99.90
27848;DHT22;15212;48.830;8.730;2023-08-08T10:41:20;19.40;99.90
27848;DHT22;15212;48.830;8.730;2023-08-08T10:43:56;19.50;99.90
27848;DHT22;15212;48.830;8.730;2023-08-08T10:46:29;19.40;99.90
27848;DHT22;15212;48.830;8.730;2023-08-08T10:49:01;19.50;99.90
27848;DHT22;15212;48.830;8.730;2023-08-08T10:51:37;19.50;99.90
27848;DHT22;15212;48.830;8.730;2023-08-08T10:54:17;19.50;99.90
27848;DHT22;15212;48.830;8.730;2023-08-08T10:56:52;19.60;99.90
27848;DHT22;15212;48.830;8.730;2023-08-08T10:59:35;19.60;99.90
27848;DHT22;15212;48.830;8.730;2023-08-08T11:01:54;19.70;99.90
27848;DHT22;15212;48.830;8.730;2023-08-08T11:04:24;19.80;99.90
27848;DHT22;15212;48.830;8.730;2023-08-08T11:06:56;20.00;99.90
27848;DHT22;15212;48.830;8.730;2023-08-08T11:09:25;20.00;99.90
27848;DHT22;15212;48.830;8.730;2023-08-08T11:11:53;19.80;99.90
27848;DHT22;15212;48.830;8.730;2023-08-08T11:14:22;19.70;99.90
27848;DHT22;15212;48.830;8.730;2023-08-08T11:16:52;19.30;99.90
27848;DHT22;15212;48.830;8.730;2023-08-08T11:19:20;19.00;99.90
27848;DHT22;15212;48.830;8.730;2023-08-08T11:21:52;18.90;99.90
27848;DHT22;15212;48.830;8.730;2023-08-08T11:24:20;18.90;99.90
27848;DHT22;15212;48.830;8.730;2023-08-08T11:26:49;19.00;99.90
27848;DHT22;15212;48.830;8.730;2023-08-08T11:29:18;19.20;99.90
27848;DHT22;15212;48.830;8.730;2023-08-08T11:31:48;19.30;99.90
27848;DHT22;15212;48.830;8.730;2023-08-08T11:34:17;19.30;99.90
27848;DHT22;15212;48.830;8.730;2023-08-08T11:36:46;19.10;99.90
27848;DHT22;15212;48.830;8.730;2023-08-08T11:39:15;18.90;99.90
27848;DHT22;15212;48.830;8.730;2023-08-08T11:41:44;19.00;99.90
27848;DHT22;15212;48.830;8.730;2023-08-08T11:44:13;19.10;99.90
27848;DHT22;15212;48.830;8.730;2023-08-08T11:46:45;19.20;99.90
27848;DHT22;15212;48.830;8.730;2023-08-08T11:49:15;19.30;99.90
27848;DHT22;15212;48.830;8.730;2023-08-08T11:51:45;19.20;99.90
27848;DHT22;15212;48.830;8.730;2023-08-08T11:54:14;19.20;99.90
27848;DHT22;15212;48.830;8.730;2023-08-08T11:56:43;19.20;99.90
27848;DHT22;15212;48.830;8.730;2023-08-08T11:59:11;19.20;99.90
27848;DHT22;15212;48.830;8.730;2023-08-08T12:01:41;19.30;99.90
27848;DHT22;15212;48.830;8.730;2023-08-08T12:04:10;19.10;99.90
27848;DHT22;15212;48.830;8.730;2023-08-08T12:06:40;19.10;99.90
27848;DHT22;15212;48.830;8.730;2023-08-08T12:09:12;19.10;99.90
27848;DHT22;15212;48.830;8.730;2023-08-08T12:11:41;19.10;99.90
27848;DHT22;15212;48.830;8.730;2023-08-08T12:14:11;19.10;99.90
27848;DHT22;15212;48.830;8.730;2023-08-08T12:16:42;19.10;99.90
27848;DHT22;15212;48.830;8.730;2023-08-08T12:19:11;19.20;99.90
27848;DHT22;15212;48.830;8.730;2023-08-08T12:21:40;19.30;99.90
27848;DHT22;15212;48.830;8.730;2023-08-08T12:24:09;19.30;99.90
27848;DHT22;15212;48.830;8.730;2023-08-08T12:26:37;19.40;99.90
27848;DHT22;15212;48.830;8.730;2023-08-08T12:29:06;19.40;99.90
27848;DHT22;15212;48.830;8.730;2023-08-08T12:31:34;19.40;99.90
27848;DHT22;15212;48.830;8.730;2023-08-08T12:34:02;19.50;99.90
27848;DHT22;15212;48.830;8.730;2023-08-08T12:36:31;19.50;99.90
27848;DHT22;15212;48.830;8.730;2023-08-08T12:39:00;19.50;99.90
27848;DHT22;15212;48.830;8.730;2023-08-08T12:41:28;19.50;99.90
27848;DHT22;15212;48.830;8.730;2023-08-08T12:43:57;19.70;99.90
27848;DHT22;15212;48.830;8.730;2023-08-08T12:46:25;19.90;99.90
27848;DHT22;15212;48.830;8.730;2023-08-08T12:48:53;20.00;99.90
27848;DHT22;15212;48.830;8.730;2023-08-08T12:51:22;20.00;99.90
27848;DHT22;15212;48.830;8.730;2023-08-08T12:53:50;20.10;99.90
27848;DHT22;15212;48.830;8.730;2023-08-08T12:56:19;20.30;99.90
27848;DHT22;15212;48.830;8.730;2023-08-08T12:58:47;20.50;99.90
27848;DHT22;15212;48.830;8.730;2023-08-08T13:01:16;20.60;99.90
27848;DHT22;15212;48.830;8.730;2023-08-08T13:03:45;20.50;99.90
27848;DHT22;15212;48.830;8.730;2023-08-08T13:06:13;20.50;99.90
27848;DHT22;15212;48.830;8.730;2023-08-08T13:08:41;20.50;99.90
27848;DHT22;15212;48.830;8.730;2023-08-08T13:11:10;20.60;99.90
27848;DHT22;15212;48.830;8.730;2023-08-08T13:13:38;20.70;99.90
27848;DHT22;15212;48.830;8.730;2023-08-08T13:16:07;20.60;99.90
27848;DHT22;15212;48.830;8.730;2023-08-08T13:18:37;20.50;99.90
27848;DHT22;15212;48.830;8.730;2023-08-08T13:21:05;20.50;99.90
27848;DHT22;15212;48.830;8.730;2023-08-08T13:23:34;20.60;99.90
27848;DHT22;15212;48.830;8.730;2023-08-08T13:26:02;20.60;99.90
27848;DHT22;15212;48.830;8.730;2023-08-08T13:28:30;20.50;99.90
27848;DHT22;15212;48.830;8.730;2023-08-08T13:30:59;20.30;99.90
27848;DHT22;15212;48.830;8.730;2023-08-08T13:33:27;20.20;99.90
27848;DHT22;15212;48.830;8.730;2023-08-08T13:35:56;20.10;99.90
27848;DHT22;15212;48.830;8.730;2023-08-08T13:38:24;20.10;99.90
27848;DHT22;15212;48.830;8.730;2023-08-08T13:40:53;20.10;99.90
27848;DHT22;15212;48.830;8.730;2023-08-08T13:43:21;20.30;99.90
27848;DHT22;15212;48.830;8.730;2023-08-08T13:45:50;20.50;99.90
27848;DHT22;15212;48.830;8.730;2023-08-08T13:48:18;20.50;99.90
27848;DHT22;15212;48.830;8.730;2023-08-08T13:50:47;20.50;99.90
27848;DHT22;15212;48.830;8.730;2023-08-08T13:53:17;20.50;99.90
27848;DHT22;15212;48.830;8.730;2023-08-08T13:55:46;20.60;99.90
27848;DHT22;15212;48.830;8.730;2023-08-08T13:58:14;20.50;99.90
27848;DHT22;15212;48.830;8.730;2023-08-08T14:00:42;20.40;99.90
27848;DHT22;15212;48.830;8.730;2023-08-08T14:03:11;20.30;99.90
27848;DHT22;15212;48.830;8.730;2023-08-08T14:05:40;20.10;99.90
27848;DHT22;15212;48.830;8.730;2023-08-08T14:08:09;19.90;99.90
27848;DHT22;15212;48.830;8.730;2023-08-08T14:10:37;19.70;99.90
27848;DHT22;15212;48.830;8.730;2023-08-08T14:13:06;19.60;99.90
27848;DHT22;15212;48.830;8.730;2023-08-08T14:15:34;19.50;99.90
27848;DHT22;15212;48.830;8.730;2023-08-08T14:18:03;19.40;99.90
27848;DHT22;15212;48.830;8.730;2023-08-08T14:20:31;19.30;99.90
27848;DHT22;15212;48.830;8.730;2023-08-08T14:23:00;19.20;99.90
27848;DHT22;15212;48.830;8.730;2023-08-08T14:25:28;19.00;99.90
27848;DHT22;15212;48.830;8.730;2023-08-08T14:27:56;18.70;99.90
27848;DHT22;15212;48.830;8.730;2023-08-08T14:30:26;18.60;99.90
27848;DHT22;15212;48.830;8.730;2023-08-08T14:32:55;18.60;99.90
27848;DHT22;15212;48.830;8.730;2023-08-08T14:35:23;18.70;99.90
27848;DHT22;15212;48.830;8.730;2023-08-08T14:37:51;19.00;99.90
27848;DHT22;15212;48.830;8.730;2023-08-08T14:40:20;19.30;99.90
27848;DHT22;15212;48.830;8.730;2023-08-08T14:42:49;19.40;99.90
27848;DHT22;15212;48.830;8.730;2023-08-08T14:45:17;19.40;99.90
27848;DHT22;15212;48.830;8.730;2023-08-08T14:47:47;19.40;99.90
27848;DHT22;15212;48.830;8.730;2023-08-08T14:50:16;19.40;99.90
27848;DHT22;15212;48.830;8.730;2023-08-08T14:52:45;19.50;99.90
27848;DHT22;15212;48.830;8.730;2023-08-08T14:55:13;19.50;99.90
27848;DHT22;15212;48.830;8.730;2023-08-08T14:57:42;19.60;99.90
27848;DHT22;15212;48.830;8.730;2023-08-08T15:00:11;19.50;99.90
27848;DHT22;15212;48.830;8.730;2023-08-08T15:02:39;19.40;99.90
27848;DHT22;15212;48.830;8.730;2023-08-08T15:05:08;19.20;99.90
27848;DHT22;15212;48.830;8.730;2023-08-08T15:07:37;19.20;99.90
27848;DHT22;15212;48.830;8.730;2023-08-08T15:10:06;19.20;99.90
27848;DHT22;15212;48.830;8.730;2023-08-08T15:12:35;19.40;99.90
27848;DHT22;15212;48.830;8.730;2023-08-08T15:15:04;19.50;99.90
27848;DHT22;15212;48.830;8.730;2023-08-08T15:17:33;19.50;99.90
27848;DHT22;15212;48.830;8.730;2023-08-08T15:20:01;19.60;99.90
27848;DHT22;15212;48.830;8.730;2023-08-08T15:22:31;19.70;99.90
27848;DHT22;15212;48.830;8.730;2023-08-08T15:24:59;19.90;99.90
27848;DHT22;15212;48.830;8.730;2023-08-08T15:27:27;20.00;99.90
27848;DHT22;15212;48.830;8.730;2023-08-08T15:29:56;20.00;99.90
27848;DHT22;15212;48.830;8.730;2023-08-08T15:32:24;19.90;99.90
27848;DHT22;15212;48.830;8.730;2023-08-08T15:34:53;19.90;99.90
27848;DHT22;15212;48.830;8.730;2023-08-08T15:37:21;20.00;99.90
27848;DHT22;15212;48.830;8.730;2023-08-08T15:39:49;20.20;99.90
27848;DHT22;15212;48.830;8.730;2023-08-08T15:42:18;20.20;99.90